Time;durP1;ratioP1;P1;durP2;ratioP2;P2;SDS_P1;SDS_P2;PMS_P1;PMS_P2;Temp;Humidity;BMP_temperature;BMP_pressure;BME280_temperature;BME280_humidity;BME280_pressure;Samples;Min_cycle;Max_cycle;Signal;HPM_P1;HPM_P2
2022/06/08 00:01:22;;;;;;;4.75;2.88;;;21.90;72.90;;;;;;5078851;28;20279;-78
2022/06/08 00:03:54;;;;;;;5.60;3.05;;;21.90;72.90;;;;;;5076449;28;20189;-80
2022/06/08 00:06:22;;;;;;;6.55;3.10;;;21.90;73.00;;;;;;5081435;28;20658;-77
2022/06/08 00:08:51;;;;;;;8.18;3.45;;;21.90;73.00;;;;;;5080478;28;21590;-78
2022/06/08 00:11:20;;;;;;;6.55;3.03;;;21.80;73.10;;;;;;5080385;28;20202;-77
2022/06/08 00:13:49;;;;;;;4.47;2.85;;;21.80;73.20;;;;;;5081796;28;20196;-79
2022/06/08 00:16:18;;;;;;;6.07;3.10;;;21.80;73.30;;;;;;5084019;28;20246;-78
2022/06/08 00:18:48;;;;;;;7.97;3.13;;;21.80;73.40;;;;;;5084823;28;20194;-79
2022/06/08 00:21:17;;;;;;;5.82;3.20;;;21.70;73.30;;;;;;5082476;28;20201;-78
2022/06/08 00:23:46;;;;;;;7.10;3.00;;;21.70;73.60;;;;;;5084324;28;20284;-78
2022/06/08 00:26:15;;;;;;;4.78;3.00;;;21.70;73.70;;;;;;5082329;28;20222;-78
2022/06/08 00:28:44;;;;;;;4.47;3.10;;;21.70;73.70;;;;;;5084284;28;20218;-78
2022/06/08 00:31:12;;;;;;;5.28;3.63;;;21.70;73.80;;;;;;5084341;28;20200;-78
2022/06/08 00:33:41;;;;;;;6.22;3.53;;;21.70;74.10;;;;;;5078680;28;20564;-79
2022/06/08 00:36:11;;;;;;;5.22;3.33;;;21.60;74.40;;;;;;5081360;28;20204;-79
2022/06/08 00:38:39;;;;;;;5.97;3.38;;;21.60;74.50;;;;;;5084497;28;20662;-79
2022/06/08 00:41:25;;;;;;;6.95;3.78;;;21.60;74.70;;;;;;5083372;28;20198;-79
2022/06/08 00:43:55;;;;;;;8.35;3.08;;;21.60;74.90;;;;;;5083162;28;20194;-79
2022/06/08 00:46:23;;;;;;;6.15;3.60;;;21.60;75.10;;;;;;5083976;28;20320;-78
2022/06/08 00:48:56;;;;;;;5.03;2.95;;;21.60;75.30;;;;;;5078279;28;20270;-79
2022/06/08 00:51:26;;;;;;;5.30;3.00;;;21.50;75.20;;;;;;5075491;28;20212;-78
2022/06/08 00:53:57;;;;;;;8.88;3.42;;;21.50;75.30;;;;;;5082165;28;20189;-78
2022/06/08 00:56:30;;;;;;;6.60;3.63;;;21.60;75.50;;;;;;5085679;28;20186;-78
2022/06/08 00:58:59;;;;;;;7.07;3.47;;;21.50;75.40;;;;;;5087854;28;20558;-78
2022/06/08 01:01:27;;;;;;;7.57;3.10;;;21.50;75.60;;;;;;5078112;28;20198;-78
2022/06/08 01:04:07;;;;;;;8.75;3.28;;;21.50;75.90;;;;;;5080471;28;20250;-78
2022/06/08 01:06:38;;;;;;;7.05;3.67;;;21.50;75.90;;;;;;5076557;28;20710;-78
2022/06/08 01:09:06;;;;;;;7.75;3.72;;;21.50;76.10;;;;;;5084553;28;20221;-78
2022/06/08 01:11:39;;;;;;;5.68;3.58;;;21.50;76.30;;;;;;5077396;28;20981;-78
2022/06/08 01:14:11;;;;;;;5.65;3.58;;;21.50;76.60;;;;;;5079091;28;20259;-79
2022/06/08 01:16:43;;;;;;;7.20;3.80;;;21.40;76.70;;;;;;5074543;28;20194;-79
2022/06/08 01:19:13;;;;;;;8.23;4.00;;;21.40;76.80;;;;;;5078294;28;20706;-77
2022/06/08 01:21:47;;;;;;;8.25;3.83;;;21.40;77.00;;;;;;5080608;28;20209;-78
2022/06/08 01:24:16;;;;;;;6.45;3.85;;;21.40;77.00;;;;;;5079393;28;20618;-79
2022/06/08 01:26:56;;;;;;;9.05;3.50;;;21.30;77.10;;;;;;5079544;28;20208;-78
2022/06/08 01:29:29;;;;;;;11.32;3.80;;;21.30;77.40;;;;;;5085174;28;20194;-79
2022/06/08 01:32:04;;;;;;;8.07;3.90;;;21.30;77.50;;;;;;5084333;28;20585;-79
2022/06/08 01:34:46;;;;;;;10.50;4.00;;;21.30;77.50;;;;;;5080864;28;20581;-78
2022/06/08 01:37:29;;;;;;;6.78;3.80;;;21.40;77.60;;;;;;5081283;28;20185;-78
2022/06/08 01:40:20;;;;;;;8.13;3.75;;;21.30;77.80;;;;;;5085580;28;20190;-79
2022/06/08 01:43:13;;;;;;;10.77;3.75;;;21.30;78.00;;;;;;5081120;28;20202;-78
2022/06/08 01:45:55;;;;;;;6.65;3.78;;;21.30;78.00;;;;;;5078615;28;20318;-78
2022/06/08 01:48:50;;;;;;;8.30;3.78;;;21.30;78.00;;;;;;5077215;28;20190;-79
2022/06/08 01:51:27;;;;;;;7.95;4.00;;;21.30;77.90;;;;;;5078766;28;20202;-78
2022/06/08 01:54:06;;;;;;;7.25;3.78;;;21.30;78.00;;;;;;5083484;28;20224;-78
2022/06/08 01:56:44;;;;;;;5.68;3.08;;;21.30;78.10;;;;;;5083981;28;20201;-78
2022/06/08 01:59:27;;;;;;;7.22;3.30;;;21.30;78.20;;;;;;5079671;28;20188;-78
2022/06/08 02:02:03;;;;;;;5.05;3.30;;;21.30;78.30;;;;;;5082737;28;20202;-78
2022/06/08 02:04:39;;;;;;;8.50;3.70;;;21.30;78.40;;;;;;5080367;28;20558;-78
2022/06/08 02:07:19;;;;;;;8.70;3.88;;;21.30;78.50;;;;;;5074143;28;20205;-80
2022/06/08 02:09:55;;;;;;;6.90;3.83;;;21.30;78.50;;;;;;5083113;28;20894;-78
2022/06/08 02:12:24;;;;;;;8.98;3.22;;;21.30;78.60;;;;;;5082376;28;20197;-79
2022/06/08 02:14:58;;;;;;;8.43;3.13;;;21.30;78.60;;;;;;5077898;28;20220;-79
2022/06/08 02:17:32;;;;;;;6.95;3.53;;;21.30;78.80;;;;;;5076554;28;20185;-78
2022/06/08 02:20:11;;;;;;;10.60;4.28;;;21.20;78.70;;;;;;5078487;28;20202;-78
2022/06/08 02:22:43;;;;;;;7.57;4.30;;;21.20;78.80;;;;;;5076341;28;20859;-78
2022/06/08 02:25:16;;;;;;;6.17;3.70;;;21.20;78.90;;;;;;5082079;28;20197;-79
2022/06/08 02:27:49;;;;;;;7.00;4.20;;;21.20;79.10;;;;;;5076943;28;20202;-78
2022/06/08 02:30:22;;;;;;;5.87;3.30;;;21.20;79.10;;;;;;5082542;28;20209;-78
2022/06/08 02:35:46;;;;;;;7.55;3.72;;;21.10;79.20;;;;;;5079660;28;20195;-78
2022/06/08 02:38:18;;;;;;;9.15;4.28;;;21.10;79.40;;;;;;5080858;28;20198;-78
2022/06/08 02:40:51;;;;;;;6.38;3.72;;;21.10;79.70;;;;;;5083706;28;20196;-78
2022/06/08 02:43:23;;;;;;;7.63;4.30;;;21.10;80.00;;;;;;5082105;28;20190;-79
2022/06/08 02:45:58;;;;;;;12.95;4.45;;;21.00;80.00;;;;;;5082597;28;20229;-78
2022/06/08 02:48:27;;;;;;;8.73;4.33;;;21.10;80.20;;;;;;5081080;28;20189;-77
2022/06/08 02:50:58;;;;;;;7.00;4.53;;;21.00;80.20;;;;;;5074002;28;20213;-78
2022/06/08 02:53:50;;;;;;;8.85;4.20;;;21.00;80.40;;;;;;5083124;28;20193;-78
2022/06/08 02:56:29;;;;;;;9.20;4.80;;;21.00;80.40;;;;;;5083769;28;20296;-78
2022/06/08 02:59:01;;;;;;;8.60;4.40;;;21.00;80.40;;;;;;5079287;28;20565;-78
2022/06/08 03:01:37;;;;;;;7.97;4.47;;;21.00;80.70;;;;;;5082855;28;20185;-78
2022/06/08 03:04:10;;;;;;;8.73;4.70;;;21.00;80.70;;;;;;5083531;28;20323;-78
2022/06/08 03:06:46;;;;;;;6.75;4.07;;;21.00;81.00;;;;;;5074865;28;20382;-78
2022/06/08 03:09:18;;;;;;;8.23;4.50;;;21.00;80.90;;;;;;5080339;28;20200;-79
2022/06/08 03:11:57;;;;;;;10.37;5.10;;;21.00;81.00;;;;;;5076169;28;20197;-78
2022/06/08 03:14:27;;;;;;;7.97;4.50;;;21.00;81.10;;;;;;5078875;28;20185;-78
2022/06/08 03:16:59;;;;;;;6.73;4.47;;;21.00;81.30;;;;;;5077673;28;20190;-78
2022/06/08 03:19:31;;;;;;;8.47;4.80;;;21.00;81.60;;;;;;5079781;28;20200;-79
2022/06/08 03:21:59;;;;;;;6.83;4.50;;;21.00;81.80;;;;;;5080083;28;20193;-78
2022/06/08 03:24:29;;;;;;;8.50;4.87;;;21.00;81.80;;;;;;5077972;28;20190;-78
2022/06/08 03:27:01;;;;;;;9.20;4.93;;;21.00;82.10;;;;;;5076491;28;20190;-78
2022/06/08 03:29:31;;;;;;;11.33;4.50;;;21.00;82.30;;;;;;5081033;28;20237;-78
2022/06/08 03:31:59;;;;;;;7.53;4.07;;;21.00;82.30;;;;;;5080368;28;20219;-78
2022/06/08 03:34:28;;;;;;;7.80;4.90;;;21.00;82.30;;;;;;5081559;28;20202;-78
2022/06/08 03:36:56;;;;;;;10.00;4.77;;;21.00;82.50;;;;;;5075544;28;20190;-78
2022/06/08 03:39:25;;;;;;;10.85;5.00;;;21.00;82.90;;;;;;5079509;28;20200;-78
2022/06/08 03:41:53;;;;;;;12.43;4.83;;;21.10;83.00;;;;;;5082100;28;20206;-78
2022/06/08 03:44:23;;;;;;;10.10;4.93;;;21.10;83.80;;;;;;5080238;28;20194;-78
2022/06/08 03:46:55;;;;;;;11.10;5.03;;;21.10;83.70;;;;;;5079940;28;20233;-78
2022/06/08 03:49:26;;;;;;;11.25;4.70;;;21.10;83.80;;;;;;5080418;28;20596;-79
2022/06/08 03:51:57;;;;;;;10.27;5.40;;;21.20;83.90;;;;;;5077796;28;20202;-79
2022/06/08 03:54:30;;;;;;;11.25;5.25;;;21.20;83.90;;;;;;5077821;28;20197;-78
2022/06/08 03:57:03;;;;;;;12.93;5.13;;;21.20;84.10;;;;;;5078727;28;20190;-79
2022/06/08 03:59:36;;;;;;;11.40;5.85;;;21.30;84.00;;;;;;5083854;28;20647;-78
2022/06/08 04:02:05;;;;;;;8.50;4.50;;;21.30;84.40;;;;;;5075629;28;20200;-79
2022/06/08 04:04:34;;;;;;;8.07;4.72;;;21.30;84.50;;;;;;5081445;28;20647;-78
2022/06/08 04:07:02;;;;;;;8.15;4.82;;;21.40;84.70;;;;;;5074945;28;20198;-79
2022/06/08 04:09:31;;;;;;;9.68;5.18;;;21.40;84.60;;;;;;5080052;28;20190;-77
2022/06/08 04:11:59;;;;;;;9.10;5.18;;;21.40;85.00;;;;;;5077690;28;20197;-77
2022/06/08 04:14:28;;;;;;;8.18;4.93;;;21.50;85.00;;;;;;5081296;28;20194;-77
2022/06/08 04:16:58;;;;;;;7.03;4.45;;;21.50;84.90;;;;;;5079938;28;20205;-77
2022/06/08 04:19:26;;;;;;;8.70;4.80;;;21.60;84.90;;;;;;5074438;28;20865;-77
2022/06/08 04:21:55;;;;;;;7.00;4.43;;;21.60;85.00;;;;;;5080899;28;20186;-77
2022/06/08 04:24:28;;;;;;;8.35;4.35;;;21.70;84.90;;;;;;5074093;28;20196;-78
2022/06/08 04:27:03;;;;;;;7.43;4.22;;;21.70;85.10;;;;;;5076667;28;20247;-78
2022/06/08 04:29:31;;;;;;;11.23;4.35;;;21.80;85.30;;;;;;5081135;28;20190;-77
2022/06/08 04:32:01;;;;;;;7.93;4.35;;;21.80;85.30;;;;;;5080752;28;20209;-77
2022/06/08 04:34:30;;;;;;;8.18;4.35;;;21.80;85.50;;;;;;5078518;28;20224;-78
2022/06/08 04:36:58;;;;;;;7.13;3.85;;;22.00;85.30;;;;;;5079553;28;20204;-77
2022/06/08 04:39:29;;;;;;;7.70;4.00;;;22.00;85.20;;;;;;5080515;28;20640;-78
2022/06/08 04:41:58;;;;;;;9.18;3.75;;;22.10;85.50;;;;;;5084083;28;20194;-77
2022/06/08 04:44:27;;;;;;;8.70;4.03;;;22.10;85.50;;;;;;5077366;28;20206;-77
2022/06/08 04:46:55;;;;;;;5.45;3.60;;;22.20;85.40;;;;;;5083943;28;20225;-77
2022/06/08 04:49:25;;;;;;;9.68;4.35;;;22.20;85.20;;;;;;5081014;28;20197;-77
2022/06/08 04:51:53;;;;;;;5.97;3.60;;;22.30;85.10;;;;;;5082108;28;20249;-77
2022/06/08 04:54:22;;;;;;;8.43;3.65;;;22.30;84.80;;;;;;5086956;28;20205;-77
2022/06/08 04:56:51;;;;;;;7.93;4.35;;;22.40;84.80;;;;;;5080491;28;20197;-78
2022/06/08 04:59:20;;;;;;;7.38;3.78;;;22.40;84.90;;;;;;5084409;28;20596;-78
2022/06/08 05:01:48;;;;;;;7.40;4.30;;;22.40;84.80;;;;;;5086793;28;20194;-77
2022/06/08 05:04:17;;;;;;;9.90;4.20;;;22.50;84.60;;;;;;5088790;28;20205;-77
2022/06/08 05:06:47;;;;;;;8.18;4.07;;;22.50;84.50;;;;;;5082914;28;20202;-78
2022/06/08 05:09:16;;;;;;;9.82;4.35;;;22.50;84.40;;;;;;5083432;28;20194;-78
2022/06/08 05:11:44;;;;;;;10.23;5.05;;;22.50;84.40;;;;;;5079692;28;20228;-78
2022/06/08 05:14:13;;;;;;;8.60;4.18;;;22.60;84.30;;;;;;5085821;28;20194;-77
2022/06/08 05:16:41;;;;;;;7.82;4.43;;;22.60;84.20;;;;;;5082910;28;20202;-77
2022/06/08 05:19:10;;;;;;;8.35;4.03;;;22.70;84.10;;;;;;5079280;28;20228;-77
2022/06/08 05:21:38;;;;;;;7.68;4.50;;;22.70;83.90;;;;;;5081667;28;20190;-77
2022/06/08 05:24:09;;;;;;;7.75;3.92;;;22.70;83.90;;;;;;5083938;28;20604;-77
2022/06/08 05:26:37;;;;;;;7.85;4.10;;;22.70;84.00;;;;;;5081518;28;20193;-78
2022/06/08 05:29:06;;;;;;;7.43;4.25;;;22.80;84.00;;;;;;5079935;28;20194;-78
2022/06/08 05:31:35;;;;;;;6.55;4.72;;;22.80;84.30;;;;;;5084171;28;20820;-78
2022/06/08 05:34:04;;;;;;;8.50;4.35;;;22.90;84.30;;;;;;5083830;28;20761;-79
2022/06/08 05:36:32;;;;;;;10.43;4.45;;;22.90;84.10;;;;;;5082566;28;20197;-78
2022/06/08 05:39:00;;;;;;;8.13;4.32;;;23.00;84.20;;;;;;5085838;28;20202;-79
2022/06/08 05:41:30;;;;;;;8.00;4.07;;;23.00;84.20;;;;;;5082838;28;20194;-79
2022/06/08 05:43:59;;;;;;;7.15;4.57;;;23.00;84.20;;;;;;5085617;28;20279;-79
2022/06/08 05:46:27;;;;;;;8.95;4.35;;;23.00;84.10;;;;;;5076296;28;20290;-77
2022/06/08 05:48:56;;;;;;;7.18;4.07;;;23.00;84.00;;;;;;5079229;28;20206;-78
2022/06/08 05:51:24;;;;;;;5.90;3.60;;;23.10;84.00;;;;;;5086240;28;20218;-78
2022/06/08 05:53:53;;;;;;;5.22;2.95;;;23.10;83.70;;;;;;5084844;28;20216;-78
2022/06/08 05:56:21;;;;;;;5.72;3.08;;;23.10;83.30;;;;;;5075610;28;20660;-78
2022/06/08 05:58:51;;;;;;;7.10;3.63;;;23.20;84.10;;;;;;5084738;28;20200;-78
2022/06/08 06:01:19;;;;;;;7.05;3.78;;;23.30;83.20;;;;;;5077980;28;20702;-76
2022/06/08 06:03:48;;;;;;;5.35;3.30;;;23.40;83.00;;;;;;5080034;28;20213;-76
2022/06/08 06:06:20;;;;;;;7.65;3.25;;;23.50;82.90;;;;;;5077209;28;20185;-78
2022/06/08 06:08:48;;;;;;;6.30;2.90;;;23.50;82.80;;;;;;5084417;28;20185;-78
2022/06/08 06:11:16;;;;;;;7.45;2.80;;;23.60;82.50;;;;;;5078762;28;20922;-78
2022/06/08 06:13:45;;;;;;;5.80;3.10;;;23.60;82.20;;;;;;5080901;28;20205;-77
2022/06/08 06:16:15;;;;;;;4.45;3.08;;;23.70;82.00;;;;;;5080110;28;20194;-78
2022/06/08 06:18:43;;;;;;;6.35;2.95;;;23.80;81.80;;;;;;5085775;28;20233;-78
2022/06/08 06:21:17;;;;;;;6.25;3.10;;;23.90;81.50;;;;;;5085257;28;20571;-78
2022/06/08 06:23:47;;;;;;;8.70;3.15;;;24.00;81.40;;;;;;5082698;28;20936;-77
2022/06/08 06:26:16;;;;;;;7.88;3.42;;;24.20;81.00;;;;;;5078350;28;20190;-79
2022/06/08 06:28:44;;;;;;;5.40;2.95;;;24.10;80.80;;;;;;5080991;28;20217;-76
2022/06/08 06:31:17;;;;;;;9.70;3.50;;;24.10;80.60;;;;;;5079937;28;20580;-77
2022/06/08 06:33:46;;;;;;;5.43;2.97;;;24.20;80.50;;;;;;5080360;28;20396;-77
2022/06/08 06:36:14;;;;;;;4.30;2.70;;;24.30;80.60;;;;;;5085015;28;20198;-76
2022/06/08 06:38:43;;;;;;;4.88;2.58;;;24.30;80.10;;;;;;5084719;28;20202;-77
2022/06/08 06:41:15;;;;;;;5.03;2.35;;;24.40;80.10;;;;;;5083216;28;20190;-77
2022/06/08 06:43:44;;;;;;;4.47;2.65;;;24.40;79.40;;;;;;5084632;28;20197;-78
2022/06/08 06:46:15;;;;;;;7.57;2.45;;;24.40;79.20;;;;;;5082376;28;20235;-79
2022/06/08 06:48:44;;;;;;;4.95;2.20;;;24.40;78.30;;;;;;5084955;28;20190;-78
2022/06/08 06:51:13;;;;;;;7.40;2.25;;;24.40;78.10;;;;;;5086770;28;20205;-78
2022/06/08 06:53:41;;;;;;;6.60;2.05;;;24.50;78.20;;;;;;5084240;28;20213;-77
2022/06/08 06:56:10;;;;;;;6.22;2.45;;;24.50;78.20;;;;;;5082484;28;20197;-80
2022/06/08 13:45:54;;;;;;;4.07;1.42;;;29.90;54.90;;;;;;5062017;27;20981;-79
2022/06/08 13:48:23;;;;;;;5.38;1.58;;;30.60;52.30;;;;;;5076985;28;20288;-75
2022/06/08 13:50:53;;;;;;;3.53;1.55;;;30.50;51.30;;;;;;5047181;28;20570;-78
2022/06/08 13:53:26;;;;;;;3.00;1.30;;;30.40;51.60;;;;;;5066515;28;20272;-78
2022/06/08 13:55:56;;;;;;;2.85;1.33;;;30.40;51.40;;;;;;5050389;28;20224;-76
2022/06/08 13:58:26;;;;;;;4.10;1.52;;;30.40;51.60;;;;;;5040441;28;20228;-79
2022/06/08 14:01:00;;;;;;;3.40;1.90;;;30.40;51.60;;;;;;5049438;28;20208;-78
2022/06/08 14:03:32;;;;;;;2.70;1.60;;;30.50;51.40;;;;;;5071543;28;20189;-77
2022/06/08 14:14:42;;;;;;;2.53;1.40;;;30.30;50.70;;;;;;5060420;28;20205;-79
2022/06/08 14:17:14;;;;;;;2.67;1.10;;;30.20;50.60;;;;;;5044127;28;20199;-77
2022/06/08 14:19:47;;;;;;;8.18;1.42;;;30.20;51.00;;;;;;5044752;28;20194;-78
2022/06/08 14:22:19;;;;;;;5.93;1.20;;;30.20;51.20;;;;;;5049001;28;20196;-78
2022/06/08 14:24:50;;;;;;;5.07;1.40;;;30.30;51.50;;;;;;5048968;28;20225;-78
2022/06/08 14:27:20;;;;;;;4.55;1.60;;;30.40;51.50;;;;;;5070424;28;20196;-80
2022/06/08 14:29:49;;;;;;;2.22;1.35;;;30.40;51.10;;;;;;5064485;28;20198;-79
2022/06/08 14:32:23;;;;;;;5.85;1.50;;;30.30;51.20;;;;;;5053872;28;20207;-78
2022/06/08 14:34:51;;;;;;;2.65;1.40;;;30.30;51.50;;;;;;5055541;28;20236;-79
2022/06/08 14:37:22;;;;;;;4.80;1.27;;;30.20;51.50;;;;;;5063421;28;20191;-80
2022/06/08 14:39:50;;;;;;;3.80;1.27;;;30.20;51.70;;;;;;5060421;28;20202;-79
2022/06/08 14:42:20;;;;;;;5.72;1.63;;;30.20;51.50;;;;;;5050768;28;20355;-78
2022/06/08 14:44:49;;;;;;;3.10;1.63;;;30.20;51.50;;;;;;5045392;28;20231;-78
2022/06/08 14:47:26;;;;;;;2.47;1.60;;;30.10;51.80;;;;;;5063829;28;20198;-77
2022/06/08 14:49:56;;;;;;;9.00;1.80;;;30.00;52.00;;;;;;5043770;28;20200;-77
2022/06/08 14:52:26;;;;;;;1.67;1.20;;;30.00;52.10;;;;;;5045011;28;20191;-79
2022/06/08 14:54:54;;;;;;;4.68;1.50;;;30.00;52.00;;;;;;5049282;28;20221;-77
2022/06/08 14:57:27;;;;;;;4.60;1.70;;;30.00;52.10;;;;;;5030585;28;20192;-78
2022/06/08 14:59:57;;;;;;;2.33;1.35;;;29.90;52.30;;;;;;5036073;28;20199;-77
2022/06/08 15:02:29;;;;;;;7.93;1.42;;;29.90;52.40;;;;;;5036003;28;20193;-77
2022/06/08 15:04:58;;;;;;;4.88;1.60;;;29.90;52.30;;;;;;5039584;28;20361;-78
2022/06/08 15:07:27;;;;;;;5.18;1.30;;;29.90;52.10;;;;;;5033681;28;20191;-77
2022/06/08 15:09:56;;;;;;;3.22;1.48;;;29.90;52.00;;;;;;5034056;28;20204;-78
2022/06/08 15:12:28;;;;;;;3.58;1.42;;;29.90;52.00;;;;;;5038227;28;20283;-77
2022/06/08 15:14:59;;;;;;;6.35;1.35;;;29.90;52.20;;;;;;5040560;28;21150;-77
2022/06/08 15:17:31;;;;;;;1.70;1.17;;;29.90;52.40;;;;;;5045807;28;20571;-77
2022/06/08 15:20:02;;;;;;;3.63;1.40;;;29.90;52.60;;;;;;5035446;28;20298;-78
2022/06/08 15:22:33;;;;;;;4.03;1.45;;;29.80;52.80;;;;;;5037410;28;20192;-78
2022/06/08 15:25:02;;;;;;;3.42;1.20;;;29.80;53.50;;;;;;5042146;28;20203;-79
2022/06/08 15:27:35;;;;;;;5.68;1.20;;;29.80;52.80;;;;;;5049367;28;20206;-76
2022/06/08 15:30:05;;;;;;;2.40;1.55;;;29.80;52.80;;;;;;5051885;28;20194;-78
2022/06/08 15:32:36;;;;;;;4.05;1.85;;;29.70;53.10;;;;;;5047457;28;20867;-79
2022/06/08 15:35:06;;;;;;;2.30;1.27;;;29.60;53.70;;;;;;5047308;28;20195;-78
2022/06/08 15:37:39;;;;;;;4.72;1.48;;;29.50;53.40;;;;;;5054784;28;20209;-79
2022/06/08 15:40:12;;;;;;;5.22;1.30;;;29.40;53.60;;;;;;5041259;28;20263;-78
2022/06/08 15:42:41;;;;;;;3.13;1.42;;;29.30;53.60;;;;;;5055110;28;20191;-78
2022/06/08 15:45:11;;;;;;;5.75;1.52;;;29.20;53.70;;;;;;5059455;28;20241;-78
2022/06/08 15:47:44;;;;;;;1.98;1.17;;;29.10;53.90;;;;;;5051144;28;20632;-79
2022/06/08 15:50:15;;;;;;;5.13;1.50;;;29.10;53.90;;;;;;5040782;28;20206;-78
2022/06/08 15:52:49;;;;;;;5.47;2.40;;;29.00;53.90;;;;;;5059560;28;20224;-78
2022/06/08 15:55:20;;;;;;;2.22;1.50;;;28.90;53.90;;;;;;5056042;28;20198;-78
2022/06/08 15:57:49;;;;;;;4.07;1.50;;;28.90;53.90;;;;;;5037109;28;20200;-79
2022/06/08 16:00:24;;;;;;;2.97;1.35;;;28.80;53.90;;;;;;5031048;28;20190;-77
2022/06/08 16:02:57;;;;;;;3.50;2.17;;;28.80;54.10;;;;;;5066349;28;20854;-78
2022/06/08 16:05:27;;;;;;;4.03;1.77;;;28.70;54.20;;;;;;5052533;28;20676;-78
2022/06/08 16:07:56;;;;;;;3.72;1.83;;;28.70;54.60;;;;;;5049040;28;20259;-79
2022/06/08 16:10:26;;;;;;;3.30;2.13;;;28.60;54.80;;;;;;5046750;28;20241;-78
2022/06/08 16:12:55;;;;;;;4.55;1.95;;;28.60;55.20;;;;;;5045606;28;20199;-79
2022/06/08 16:15:24;;;;;;;3.63;2.83;;;28.50;55.50;;;;;;5046239;28;20439;-78
2022/06/08 16:17:54;;;;;;;4.05;1.80;;;28.40;55.60;;;;;;5054960;28;20199;-78
2022/06/08 16:20:27;;;;;;;4.53;2.25;;;28.30;55.60;;;;;;5050113;28;20195;-79
2022/06/08 16:22:56;;;;;;;43.00;32.05;;;28.30;55.70;;;;;;5053969;28;20194;-79
2022/06/08 16:25:25;;;;;;;11.43;5.88;;;28.20;55.80;;;;;;5042210;28;20268;-79
2022/06/08 16:27:54;;;;;;;5.53;3.45;;;28.10;55.90;;;;;;5040297;28;20198;-79
2022/06/08 16:30:26;;;;;;;86.00;49.05;;;28.10;56.10;;;;;;5052114;28;20684;-79
2022/06/08 16:32:56;;;;;;;16.73;8.82;;;28.00;56.20;;;;;;5051373;28;20210;-78
2022/06/08 16:35:25;;;;;;;75.70;37.75;;;28.00;56.30;;;;;;5045685;28;20195;-78
2022/06/08 16:37:56;;;;;;;54.40;27.13;;;27.90;56.50;;;;;;5054974;28;20199;-79
2022/06/08 16:40:28;;;;;;;10.05;4.60;;;27.80;56.50;;;;;;5061495;28;20195;-78
2022/06/08 16:42:59;;;;;;;26.35;9.32;;;27.80;56.80;;;;;;5048331;28;20206;-79
2022/06/08 16:45:28;;;;;;;8.77;4.40;;;27.70;56.90;;;;;;5037600;28;20245;-80
2022/06/08 16:48:00;;;;;;;4.68;2.40;;;27.70;57.00;;;;;;5048095;28;20206;-78
2022/06/08 16:50:29;;;;;;;4.68;2.13;;;27.60;57.10;;;;;;5050753;28;20192;-79
2022/06/08 16:52:58;;;;;;;8.48;2.00;;;27.60;57.20;;;;;;5055664;28;20188;-80
2022/06/08 16:55:27;;;;;;;4.65;2.08;;;27.60;57.40;;;;;;5055122;28;20254;-79
2022/06/08 17:00:42;;;;;;;3.13;1.60;;;27.50;57.20;;;;;;5044948;28;20214;-77
2022/06/08 17:03:14;;;;;;;6.20;2.70;;;27.40;57.60;;;;;;5045075;28;20881;-78
2022/06/08 17:05:43;;;;;;;8.88;1.70;;;27.40;57.70;;;;;;5046864;28;20591;-77
2022/06/08 17:08:12;;;;;;;9.13;2.00;;;27.30;57.80;;;;;;5049658;28;20183;-78
2022/06/08 17:13:23;;;;;;;9.90;2.05;;;27.20;57.90;;;;;;5046364;28;20201;-78
2022/06/08 17:15:52;;;;;;;4.72;2.10;;;27.20;58.00;;;;;;5054493;28;20195;-79
2022/06/08 17:18:22;;;;;;;4.40;1.77;;;27.10;58.10;;;;;;5043788;28;20219;-78
2022/06/08 17:20:50;;;;;;;7.30;2.30;;;27.00;58.10;;;;;;5032324;28;20202;-78
2022/06/08 17:23:18;;;;;;;6.07;1.83;;;27.00;58.20;;;;;;5052899;28;20187;-78
2022/06/08 17:25:47;;;;;;;5.15;1.75;;;26.90;58.30;;;;;;5042144;28;20412;-78
2022/06/08 17:28:15;;;;;;;5.43;1.75;;;26.90;58.50;;;;;;5062690;28;20206;-79
2022/06/08 17:30:44;;;;;;;3.83;2.15;;;26.90;58.60;;;;;;5043417;28;20196;-78
2022/06/08 17:33:12;;;;;;;5.88;2.00;;;26.80;58.70;;;;;;5030179;28;20191;-78
2022/06/08 17:35:43;;;;;;;2.72;1.58;;;26.70;58.80;;;;;;5044001;28;20195;-78
2022/06/08 17:38:11;;;;;;;4.32;1.70;;;26.70;58.90;;;;;;5048535;28;20874;-79
2022/06/08 17:40:40;;;;;;;7.63;2.28;;;26.60;59.00;;;;;;5033720;28;20234;-78
2022/06/08 17:43:08;;;;;;;3.30;1.90;;;26.60;59.20;;;;;;5041125;28;20187;-79
2022/06/08 17:45:36;;;;;;;2.25;1.63;;;26.50;59.50;;;;;;5035718;28;20228;-78
2022/06/08 17:48:07;;;;;;;7.53;2.17;;;26.50;59.90;;;;;;5034755;28;20199;-79
2022/06/08 17:50:36;;;;;;;6.60;2.17;;;26.40;60.20;;;;;;5031376;28;20234;-78
2022/06/08 17:53:06;;;;;;;3.17;2.17;;;26.40;60.60;;;;;;5053524;28;20202;-79
2022/06/08 17:55:34;;;;;;;3.58;2.15;;;26.30;61.00;;;;;;5033534;28;20199;-80
2022/06/08 17:58:04;;;;;;;4.20;2.03;;;26.20;61.70;;;;;;5040627;28;20294;-80
2022/06/08 18:00:33;;;;;;;4.28;2.05;;;26.20;62.30;;;;;;5038992;28;20208;-78
2022/06/08 18:03:03;;;;;;;8.07;2.15;;;26.10;62.70;;;;;;5035756;28;20263;-79
2022/06/08 18:05:33;;;;;;;7.95;2.22;;;26.00;63.20;;;;;;5036390;28;20191;-79
2022/06/08 18:08:04;;;;;;;6.45;2.30;;;26.00;63.60;;;;;;5042950;28;20218;-79
2022/06/08 18:10:37;;;;;;;4.20;2.60;;;25.90;64.10;;;;;;5043587;28;20575;-79
2022/06/08 18:13:07;;;;;;;3.78;2.22;;;25.80;64.60;;;;;;5048343;28;20195;-79
2022/06/08 18:15:36;;;;;;;5.57;2.50;;;25.70;65.00;;;;;;5041626;28;20206;-78
2022/06/08 18:18:05;;;;;;;6.18;2.63;;;25.70;65.20;;;;;;5033812;28;20197;-80
2022/06/08 18:20:38;;;;;;;10.68;3.05;;;25.60;65.40;;;;;;5045465;28;20195;-79
2022/06/08 18:23:07;;;;;;;8.02;2.25;;;25.60;65.60;;;;;;5038140;28;20205;-77
2022/06/08 18:25:42;;;;;;;6.10;2.30;;;25.50;65.80;;;;;;5046767;28;20196;-79
2022/06/08 18:28:15;;;;;;;5.38;2.20;;;25.50;66.10;;;;;;5046288;28;20197;-79
2022/06/08 18:30:44;;;;;;;5.70;2.35;;;25.40;66.30;;;;;;5048112;28;20192;-78
2022/06/08 18:33:13;;;;;;;6.88;2.55;;;25.40;66.60;;;;;;5053265;28;20211;-79
2022/06/08 18:35:42;;;;;;;5.57;2.90;;;25.30;66.70;;;;;;5038067;28;20207;-78
2022/06/08 18:38:12;;;;;;;6.28;2.38;;;25.30;67.30;;;;;;5029473;28;20200;-80
2022/06/08 18:40:43;;;;;;;3.53;2.00;;;25.30;67.30;;;;;;5037188;28;20817;-79
2022/06/08 18:43:15;;;;;;;6.43;2.17;;;25.20;67.50;;;;;;5040489;28;20195;-79
2022/06/08 18:45:45;;;;;;;4.43;2.33;;;25.20;67.50;;;;;;5050986;28;20227;-79
2022/06/08 18:48:13;;;;;;;3.33;2.30;;;25.10;67.50;;;;;;5050081;28;20215;-79
2022/06/08 18:50:42;;;;;;;12.75;2.13;;;25.00;67.50;;;;;;5035641;28;20864;-79
2022/06/08 18:53:10;;;;;;;3.97;2.20;;;25.00;67.70;;;;;;5037785;28;20408;-78
2022/06/08 18:55:41;;;;;;;6.30;2.53;;;25.00;67.70;;;;;;5049235;28;20277;-78
2022/06/08 18:58:11;;;;;;;6.10;2.30;;;25.00;67.90;;;;;;5056874;28;20202;-77
2022/06/08 19:00:41;;;;;;;9.00;3.00;;;24.90;67.90;;;;;;5044460;28;20192;-78
2022/06/08 19:03:10;;;;;;;7.97;2.05;;;24.90;68.00;;;;;;5037082;28;20187;-78
2022/06/08 19:05:41;;;;;;;8.57;2.53;;;24.80;67.90;;;;;;5036758;28;20199;-78
2022/06/08 19:08:11;;;;;;;5.43;2.40;;;24.80;68.00;;;;;;5029816;28;21793;-79
2022/06/08 19:10:41;;;;;;;6.95;2.72;;;24.80;68.40;;;;;;5037697;28;20190;-77
2022/06/08 19:13:09;;;;;;;5.53;2.13;;;24.80;68.50;;;;;;5032825;28;20198;-78
2022/06/08 19:15:38;;;;;;;4.53;2.50;;;24.70;68.30;;;;;;5045951;28;20274;-78
2022/06/08 19:20:57;;;;;;;3.65;2.17;;;24.70;68.90;;;;;;5035377;28;20708;-78
2022/06/08 19:23:30;;;;;;;5.70;2.60;;;24.60;69.10;;;;;;5035751;28;20210;-77
2022/06/08 19:26:03;;;;;;;4.85;2.50;;;24.60;69.30;;;;;;5042041;28;20191;-78
2022/06/08 19:28:31;;;;;;;8.88;2.55;;;24.60;69.50;;;;;;5027057;28;20223;-77
2022/06/08 19:31:00;;;;;;;7.25;3.03;;;24.50;69.50;;;;;;5028333;28;20234;-78
2022/06/08 19:33:32;;;;;;;7.72;2.83;;;24.50;69.70;;;;;;5030476;28;20234;-77
2022/06/08 19:36:04;;;;;;;6.22;2.60;;;24.50;69.90;;;;;;5036004;28;20207;-78
2022/06/08 19:38:33;;;;;;;6.45;2.75;;;24.50;69.90;;;;;;5028598;28;20209;-78
2022/06/08 19:41:04;;;;;;;9.38;2.65;;;24.40;70.00;;;;;;5032110;28;20202;-78
2022/06/08 19:43:33;;;;;;;6.75;2.60;;;24.40;70.10;;;;;;5033292;28;20188;-78
2022/06/08 19:46:02;;;;;;;4.57;2.47;;;24.40;70.10;;;;;;5033043;28;20231;-77
2022/06/08 19:48:31;;;;;;;3.70;2.50;;;24.40;70.20;;;;;;5028506;28;20250;-77
2022/06/08 19:51:00;;;;;;;6.72;2.58;;;24.40;70.10;;;;;;5035645;28;20648;-77
2022/06/08 19:53:29;;;;;;;8.70;2.85;;;24.40;70.10;;;;;;5030916;28;20862;-78
2022/06/08 19:55:59;;;;;;;5.00;3.00;;;24.40;70.00;;;;;;5035260;28;20200;-78
2022/06/08 19:58:29;;;;;;;5.57;2.92;;;24.40;70.00;;;;;;5038844;28;20561;-78
2022/06/08 20:00:58;;;;;;;6.72;2.97;;;24.40;70.00;;;;;;5042941;28;20195;-78
2022/06/08 20:03:28;;;;;;;4.03;2.35;;;24.40;70.00;;;;;;5044061;28;20201;-78
2022/06/08 20:05:58;;;;;;;6.13;3.08;;;24.40;70.00;;;;;;5036201;28;20187;-78
2022/06/08 20:08:27;;;;;;;5.45;2.92;;;24.50;69.90;;;;;;5033915;28;20219;-78
2022/06/08 20:10:55;;;;;;;4.18;2.00;;;24.40;69.70;;;;;;5040454;28;20195;-80